KPHF/PHF METAR and TAF weather

Enter ICAO airport designator
Station Type Date Time Source
KPHF METAR 2019/02/17 06:54 UTC NOAA

KPHF 170654Z AUTO 36004KT 10SM CLR 00/M02 A3003 RMK AO2 SLP168 T00001022


Station Type Date Time Source
KPHF Decoded METAR 2019/02/17 06:54 UTC NOAA

WILLIAMSBURG INTERNATIONAL AIRPORT , VA, United States (KPHF) 37-08N 76-30W 12M
Feb 17, 2019 - 01:54 AM EST / 2019.02.17 0654 UTC
Wind: from the N (360 degrees) at 5 MPH (4 KT):0
Visibility: 10 mile(s):0
Sky conditions: clear
Temperature: 32.0 F (0.0 C)
Windchill: 26 F (-3 C):1
Dew Point: 28.0 F (-2.2 C)
Relative Humidity: 85%
Pressure (altimeter): 30.03 in. Hg (1016 hPa)
ob: KPHF 170654Z AUTO 36004KT 10SM CLR 00/M02 A3003 RMK AO2 SLP168 T00001022
cycle: 7

Station Type Date Time Source
KPHF TAF 2019/02/17 06:36 UTC NOAA

TAF KPHF 170534Z 1706/1806 36004KT P6SM SCT250
FM171100 04005KT P6SM SCT200
FM171500 07006KT P6SM SCT050 BKN150
FM171900 07007KT 6SM -RA OVC060
FM172300 11005KT 6SM -RA OVC030
FM180200 VRB03KT 5SM -RA OVC015
FM180400 VRB03KT 3SM -RA OVC010


Example: see airport list